<?xml version="1.0" encoding="UTF-8" standalone="no" ?>
<gpx xmlns="http://www.topografix.com/GPX/1/1" xmlns:xsi="http://www.w3.org/2001/XMLSchema-instance" xsi:schemaLocation="http://www.topografix.com/GPX/1/1 http://www.topografix.com/GPX/1/1/gpx.xsd" version="1.1" creator="VisuGPX - https://www.visugpx.com">
  <metadata>
    <name>1422402-Pech de Bugarach</name>
    <desc><![CDATA[Commentaire]]></desc>
  </metadata>
  <trk>
    <name><![CDATA[1422402-Pech de Bugarach]]></name>
    <desc><![CDATA[Commentaire]]></desc>
    <extensions>
      <line xmlns="http://www.topografix.com/GPX/gpx_style/0/2">
        <color>0000FF</color>
        <width>4</width>
      </line>
    </extensions>
    <trkseg>
      <trkpt lat="42.90131" lon="2.35366">
        <ele>401</ele>
        <time>2021-11-08T16:25:42Z</time>
      </trkpt>
      <trkpt lat="42.90054" lon="2.35463">
        <ele>402</ele>
        <time>2021-11-08T16:28:02Z</time>
      </trkpt>
      <trkpt lat="42.90133" lon="2.35547">
        <ele>404</ele>
        <time>2021-11-08T16:30:15Z</time>
      </trkpt>
      <trkpt lat="42.90151" lon="2.3562">
        <ele>403</ele>
        <time>2021-11-08T16:31:31Z</time>
      </trkpt>
      <trkpt lat="42.90047" lon="2.35745">
        <ele>424</ele>
        <time>2021-11-08T16:34:36Z</time>
      </trkpt>
      <trkpt lat="42.89939" lon="2.35787">
        <ele>443</ele>
        <time>2021-11-08T16:37:06Z</time>
      </trkpt>
      <trkpt lat="42.89824" lon="2.35766">
        <ele>476</ele>
        <time>2021-11-08T16:39:40Z</time>
      </trkpt>
      <trkpt lat="42.89745" lon="2.35771">
        <ele>511</ele>
        <time>2021-11-08T16:41:26Z</time>
      </trkpt>
      <trkpt lat="42.89713" lon="2.35865">
        <ele>524</ele>
        <time>2021-11-08T16:43:07Z</time>
      </trkpt>
      <trkpt lat="42.89691" lon="2.3611">
        <ele>548</ele>
        <time>2021-11-08T16:47:09Z</time>
      </trkpt>
      <trkpt lat="42.89655" lon="2.36183">
        <ele>563</ele>
        <time>2021-11-08T16:48:35Z</time>
      </trkpt>
      <trkpt lat="42.89641" lon="2.36444">
        <ele>547</ele>
        <time>2021-11-08T16:52:50Z</time>
      </trkpt>
      <trkpt lat="42.89562" lon="2.36434">
        <ele>578</ele>
        <time>2021-11-08T16:54:36Z</time>
      </trkpt>
      <trkpt lat="42.89608" lon="2.3635">
        <ele>577</ele>
        <time>2021-11-08T16:56:19Z</time>
      </trkpt>
      <trkpt lat="42.89522" lon="2.36058">
        <ele>630</ele>
        <time>2021-11-08T17:01:26Z</time>
      </trkpt>
      <trkpt lat="42.89332" lon="2.3599">
        <ele>677</ele>
        <time>2021-11-08T17:05:49Z</time>
      </trkpt>
      <trkpt lat="42.89184" lon="2.36032">
        <ele>692</ele>
        <time>2021-11-08T17:09:10Z</time>
      </trkpt>
      <trkpt lat="42.89065" lon="2.35917">
        <ele>709</ele>
        <time>2021-11-08T17:12:25Z</time>
      </trkpt>
      <trkpt lat="42.88867" lon="2.35938">
        <ele>692</ele>
        <time>2021-11-08T17:16:50Z</time>
      </trkpt>
      <trkpt lat="42.88677" lon="2.35902">
        <ele>646</ele>
        <time>2021-11-08T17:21:06Z</time>
      </trkpt>
      <trkpt lat="42.88537" lon="2.35818">
        <ele>600</ele>
        <time>2021-11-08T17:24:30Z</time>
      </trkpt>
      <trkpt lat="42.88483" lon="2.35677">
        <ele>571</ele>
        <time>2021-11-08T17:27:06Z</time>
      </trkpt>
      <trkpt lat="42.88186" lon="2.35479">
        <ele>517</ele>
        <time>2021-11-08T17:34:27Z</time>
      </trkpt>
      <trkpt lat="42.88099" lon="2.3551">
        <ele>504</ele>
        <time>2021-11-08T17:36:27Z</time>
      </trkpt>
      <trkpt lat="42.87948" lon="2.3539">
        <ele>482</ele>
        <time>2021-11-08T17:40:20Z</time>
      </trkpt>
      <trkpt lat="42.87837" lon="2.35374">
        <ele>469</ele>
        <time>2021-11-08T17:42:49Z</time>
      </trkpt>
      <trkpt lat="42.87792" lon="2.35419">
        <ele>467</ele>
        <time>2021-11-08T17:44:03Z</time>
      </trkpt>
      <trkpt lat="42.87731" lon="2.35367">
        <ele>466</ele>
        <time>2021-11-08T17:45:39Z</time>
      </trkpt>
      <trkpt lat="42.87685" lon="2.35236">
        <ele>467</ele>
        <time>2021-11-08T17:48:01Z</time>
      </trkpt>
      <trkpt lat="42.87659" lon="2.35028">
        <ele>463</ele>
        <time>2021-11-08T17:51:28Z</time>
      </trkpt>
      <trkpt lat="42.87543" lon="2.35082">
        <ele>463</ele>
        <time>2021-11-08T17:54:11Z</time>
      </trkpt>
      <trkpt lat="42.87406" lon="2.35338">
        <ele>477</ele>
        <time>2021-11-08T17:59:21Z</time>
      </trkpt>
      <trkpt lat="42.87302" lon="2.35411">
        <ele>484</ele>
        <time>2021-11-08T18:01:57Z</time>
      </trkpt>
      <trkpt lat="42.87101" lon="2.35401">
        <ele>478</ele>
        <time>2021-11-08T18:06:26Z</time>
      </trkpt>
      <trkpt lat="42.86921" lon="2.35484">
        <ele>487</ele>
        <time>2021-11-08T18:10:39Z</time>
      </trkpt>
      <trkpt lat="42.86759" lon="2.35474">
        <ele>486</ele>
        <time>2021-11-08T18:14:16Z</time>
      </trkpt>
      <trkpt lat="42.86625" lon="2.35578">
        <ele>498</ele>
        <time>2021-11-08T18:17:41Z</time>
      </trkpt>
      <trkpt lat="42.86399" lon="2.35719">
        <ele>519</ele>
        <time>2021-11-08T18:23:13Z</time>
      </trkpt>
      <trkpt lat="42.86234" lon="2.35772">
        <ele>546</ele>
        <time>2021-11-08T18:26:59Z</time>
      </trkpt>
      <trkpt lat="42.86176" lon="2.35886">
        <ele>534</ele>
        <time>2021-11-08T18:29:15Z</time>
      </trkpt>
      <trkpt lat="42.85889" lon="2.3608">
        <ele>559</ele>
        <time>2021-11-08T18:36:22Z</time>
      </trkpt>
      <trkpt lat="42.8582" lon="2.36179">
        <ele>552</ele>
        <time>2021-11-08T18:38:36Z</time>
      </trkpt>
      <trkpt lat="42.85695" lon="2.36121">
        <ele>588</ele>
        <time>2021-11-08T18:41:32Z</time>
      </trkpt>
      <trkpt lat="42.85608" lon="2.36283">
        <ele>577</ele>
        <time>2021-11-08T18:44:49Z</time>
      </trkpt>
      <trkpt lat="42.85501" lon="2.36367">
        <ele>605</ele>
        <time>2021-11-08T18:47:33Z</time>
      </trkpt>
      <trkpt lat="42.85443" lon="2.36669">
        <ele>586</ele>
        <time>2021-11-08T18:52:39Z</time>
      </trkpt>
      <trkpt lat="42.85518" lon="2.36649">
        <ele>586</ele>
        <time>2021-11-08T18:54:21Z</time>
      </trkpt>
      <trkpt lat="42.85533" lon="2.36753">
        <ele>609</ele>
        <time>2021-11-08T18:56:04Z</time>
      </trkpt>
      <trkpt lat="42.85601" lon="2.36716">
        <ele>608</ele>
        <time>2021-11-08T18:57:42Z</time>
      </trkpt>
      <trkpt lat="42.85637" lon="2.36998">
        <ele>645</ele>
        <time>2021-11-08T19:02:22Z</time>
      </trkpt>
      <trkpt lat="42.85626" lon="2.37164">
        <ele>674</ele>
        <time>2021-11-08T19:05:05Z</time>
      </trkpt>
      <trkpt lat="42.85684" lon="2.37248">
        <ele>702</ele>
        <time>2021-11-08T19:06:58Z</time>
      </trkpt>
      <trkpt lat="42.85616" lon="2.373">
        <ele>706</ele>
        <time>2021-11-08T19:08:42Z</time>
      </trkpt>
      <trkpt lat="42.85673" lon="2.3741">
        <ele>744</ele>
        <time>2021-11-08T19:10:54Z</time>
      </trkpt>
      <trkpt lat="42.85788" lon="2.37498">
        <ele>812</ele>
        <time>2021-11-08T19:13:50Z</time>
      </trkpt>
      <trkpt lat="42.85838" lon="2.37613">
        <ele>852</ele>
        <time>2021-11-08T19:16:01Z</time>
      </trkpt>
      <trkpt lat="42.85932" lon="2.37587">
        <ele>883</ele>
        <time>2021-11-08T19:18:09Z</time>
      </trkpt>
      <trkpt lat="42.86007" lon="2.3765">
        <ele>929</ele>
        <time>2021-11-08T19:20:06Z</time>
      </trkpt>
      <trkpt lat="42.86072" lon="2.37535">
        <ele>956</ele>
        <time>2021-11-08T19:22:28Z</time>
      </trkpt>
      <trkpt lat="42.8623" lon="2.3766">
        <ele>1064</ele>
        <time>2021-11-08T19:26:32Z</time>
      </trkpt>
      <trkpt lat="42.86363" lon="2.37869">
        <ele>1184</ele>
        <time>2021-11-08T19:31:03Z</time>
      </trkpt>
      <trkpt lat="42.86494" lon="2.37848">
        <ele>1196</ele>
        <time>2021-11-08T19:33:59Z</time>
      </trkpt>
      <trkpt lat="42.86594" lon="2.37884">
        <ele>1180</ele>
        <time>2021-11-08T19:36:17Z</time>
      </trkpt>
      <trkpt lat="42.86709" lon="2.3779">
        <ele>1128</ele>
        <time>2021-11-08T19:39:16Z</time>
      </trkpt>
      <trkpt lat="42.8672" lon="2.37613">
        <ele>1098</ele>
        <time>2021-11-08T19:42:09Z</time>
      </trkpt>
      <trkpt lat="42.8667" lon="2.37488">
        <ele>1062</ele>
        <time>2021-11-08T19:44:29Z</time>
      </trkpt>
      <trkpt lat="42.86724" lon="2.37388">
        <ele>1048</ele>
        <time>2021-11-08T19:46:30Z</time>
      </trkpt>
      <trkpt lat="42.86781" lon="2.37394">
        <ele>1029</ele>
        <time>2021-11-08T19:47:46Z</time>
      </trkpt>
      <trkpt lat="42.86799" lon="2.3732">
        <ele>991</ele>
        <time>2021-11-08T19:49:03Z</time>
      </trkpt>
      <trkpt lat="42.86857" lon="2.37362">
        <ele>962</ele>
        <time>2021-11-08T19:50:30Z</time>
      </trkpt>
      <trkpt lat="42.86799" lon="2.37268">
        <ele>973</ele>
        <time>2021-11-08T19:52:30Z</time>
      </trkpt>
      <trkpt lat="42.86832" lon="2.37148">
        <ele>894</ele>
        <time>2021-11-08T19:54:36Z</time>
      </trkpt>
      <trkpt lat="42.87029" lon="2.37253">
        <ele>840</ele>
        <time>2021-11-08T19:59:18Z</time>
      </trkpt>
      <trkpt lat="42.87036" lon="2.37164">
        <ele>826</ele>
        <time>2021-11-08T20:00:46Z</time>
      </trkpt>
      <trkpt lat="42.8713" lon="2.37133">
        <ele>789</ele>
        <time>2021-11-08T20:02:55Z</time>
      </trkpt>
      <trkpt lat="42.87176" lon="2.37702">
        <ele>833</ele>
        <time>2021-11-08T20:12:14Z</time>
      </trkpt>
      <trkpt lat="42.87234" lon="2.37681">
        <ele>814</ele>
        <time>2021-11-08T20:13:35Z</time>
      </trkpt>
      <trkpt lat="42.87288" lon="2.38036">
        <ele>801</ele>
        <time>2021-11-08T20:19:29Z</time>
      </trkpt>
      <trkpt lat="42.87331" lon="2.3837">
        <ele>767</ele>
        <time>2021-11-08T20:25:01Z</time>
      </trkpt>
      <trkpt lat="42.87435" lon="2.38438">
        <ele>736</ele>
        <time>2021-11-08T20:27:35Z</time>
      </trkpt>
      <trkpt lat="42.87486" lon="2.38364">
        <ele>727</ele>
        <time>2021-11-08T20:29:14Z</time>
      </trkpt>
      <trkpt lat="42.87633" lon="2.38443">
        <ele>699</ele>
        <time>2021-11-08T20:32:45Z</time>
      </trkpt>
      <trkpt lat="42.87766" lon="2.38458">
        <ele>678</ele>
        <time>2021-11-08T20:35:43Z</time>
      </trkpt>
      <trkpt lat="42.87867" lon="2.38537">
        <ele>674</ele>
        <time>2021-11-08T20:38:18Z</time>
      </trkpt>
      <trkpt lat="42.87915" lon="2.38914">
        <ele>672</ele>
        <time>2021-11-08T20:44:32Z</time>
      </trkpt>
      <trkpt lat="42.87818" lon="2.3905">
        <ele>663</ele>
        <time>2021-11-08T20:47:38Z</time>
      </trkpt>
      <trkpt lat="42.87947" lon="2.39133">
        <ele>676</ele>
        <time>2021-11-08T20:50:48Z</time>
      </trkpt>
      <trkpt lat="42.87991" lon="2.39167">
        <ele>682</ele>
        <time>2021-11-08T20:51:56Z</time>
      </trkpt>
      <trkpt lat="42.88114" lon="2.39047">
        <ele>694</ele>
        <time>2021-11-08T20:55:18Z</time>
      </trkpt>
      <trkpt lat="42.88171" lon="2.39036">
        <ele>703</ele>
        <time>2021-11-08T20:56:34Z</time>
      </trkpt>
      <trkpt lat="42.88128" lon="2.39182">
        <ele>708</ele>
        <time>2021-11-08T20:59:08Z</time>
      </trkpt>
      <trkpt lat="42.88207" lon="2.39422">
        <ele>721</ele>
        <time>2021-11-08T21:03:26Z</time>
      </trkpt>
      <trkpt lat="42.88286" lon="2.39391">
        <ele>736</ele>
        <time>2021-11-08T21:05:15Z</time>
      </trkpt>
      <trkpt lat="42.88451" lon="2.39506">
        <ele>757</ele>
        <time>2021-11-08T21:09:23Z</time>
      </trkpt>
      <trkpt lat="42.88539" lon="2.39718">
        <ele>774</ele>
        <time>2021-11-08T21:13:21Z</time>
      </trkpt>
      <trkpt lat="42.88529" lon="2.39859">
        <ele>781</ele>
        <time>2021-11-08T21:15:39Z</time>
      </trkpt>
      <trkpt lat="42.88608" lon="2.40041">
        <ele>791</ele>
        <time>2021-11-08T21:19:06Z</time>
      </trkpt>
      <trkpt lat="42.8869" lon="2.40151">
        <ele>805</ele>
        <time>2021-11-08T21:21:40Z</time>
      </trkpt>
      <trkpt lat="42.88805" lon="2.40354">
        <ele>815</ele>
        <time>2021-11-08T21:25:50Z</time>
      </trkpt>
      <trkpt lat="42.88881" lon="2.40532">
        <ele>823</ele>
        <time>2021-11-08T21:29:12Z</time>
      </trkpt>
      <trkpt lat="42.8896" lon="2.40605">
        <ele>828</ele>
        <time>2021-11-08T21:31:19Z</time>
      </trkpt>
      <trkpt lat="42.89046" lon="2.40574">
        <ele>831</ele>
        <time>2021-11-08T21:33:18Z</time>
      </trkpt>
      <trkpt lat="42.88967" lon="2.40057">
        <ele>828</ele>
        <time>2021-11-08T21:41:54Z</time>
      </trkpt>
      <trkpt lat="42.88877" lon="2.39859">
        <ele>826</ele>
        <time>2021-11-08T21:45:42Z</time>
      </trkpt>
      <trkpt lat="42.8887" lon="2.39692">
        <ele>819</ele>
        <time>2021-11-08T21:48:26Z</time>
      </trkpt>
      <trkpt lat="42.88618" lon="2.39378">
        <ele>790</ele>
        <time>2021-11-08T21:56:01Z</time>
      </trkpt>
      <trkpt lat="42.88845" lon="2.3931">
        <ele>785</ele>
        <time>2021-11-08T22:01:11Z</time>
      </trkpt>
      <trkpt lat="42.88924" lon="2.39337">
        <ele>767</ele>
        <time>2021-11-08T22:03:00Z</time>
      </trkpt>
      <trkpt lat="42.89039" lon="2.39545">
        <ele>745</ele>
        <time>2021-11-08T22:07:15Z</time>
      </trkpt>
      <trkpt lat="42.89103" lon="2.39707">
        <ele>731</ele>
        <time>2021-11-08T22:10:14Z</time>
      </trkpt>
      <trkpt lat="42.89207" lon="2.39676">
        <ele>694</ele>
        <time>2021-11-08T22:12:37Z</time>
      </trkpt>
      <trkpt lat="42.89146" lon="2.39404">
        <ele>688</ele>
        <time>2021-11-08T22:17:15Z</time>
      </trkpt>
      <trkpt lat="42.892" lon="2.39295">
        <ele>669</ele>
        <time>2021-11-08T22:19:23Z</time>
      </trkpt>
      <trkpt lat="42.89178" lon="2.39086">
        <ele>669</ele>
        <time>2021-11-08T22:22:50Z</time>
      </trkpt>
      <trkpt lat="42.8925" lon="2.3917">
        <ele>652</ele>
        <time>2021-11-08T22:24:56Z</time>
      </trkpt>
      <trkpt lat="42.893" lon="2.38924">
        <ele>642</ele>
        <time>2021-11-08T22:29:06Z</time>
      </trkpt>
      <trkpt lat="42.8939" lon="2.38835">
        <ele>625</ele>
        <time>2021-11-08T22:31:34Z</time>
      </trkpt>
      <trkpt lat="42.8938" lon="2.38961">
        <ele>620</ele>
        <time>2021-11-08T22:33:38Z</time>
      </trkpt>
      <trkpt lat="42.89574" lon="2.38882">
        <ele>606</ele>
        <time>2021-11-08T22:38:08Z</time>
      </trkpt>
      <trkpt lat="42.89646" lon="2.38679">
        <ele>576</ele>
        <time>2021-11-08T22:41:49Z</time>
      </trkpt>
      <trkpt lat="42.89783" lon="2.38689">
        <ele>557</ele>
        <time>2021-11-08T22:44:52Z</time>
      </trkpt>
      <trkpt lat="42.8997" lon="2.38956">
        <ele>570</ele>
        <time>2021-11-08T22:50:53Z</time>
      </trkpt>
      <trkpt lat="42.90099" lon="2.39039">
        <ele>579</ele>
        <time>2021-11-08T22:54:03Z</time>
      </trkpt>
      <trkpt lat="42.90138" lon="2.39008">
        <ele>584</ele>
        <time>2021-11-08T22:55:03Z</time>
      </trkpt>
      <trkpt lat="42.89988" lon="2.38752">
        <ele>556</ele>
        <time>2021-11-08T23:00:24Z</time>
      </trkpt>
      <trkpt lat="42.90095" lon="2.38679">
        <ele>546</ele>
        <time>2021-11-08T23:03:03Z</time>
      </trkpt>
      <trkpt lat="42.90196" lon="2.38757">
        <ele>544</ele>
        <time>2021-11-08T23:05:38Z</time>
      </trkpt>
      <trkpt lat="42.90311" lon="2.38919">
        <ele>547</ele>
        <time>2021-11-08T23:09:19Z</time>
      </trkpt>
      <trkpt lat="42.90325" lon="2.39034">
        <ele>547</ele>
        <time>2021-11-08T23:11:13Z</time>
      </trkpt>
      <trkpt lat="42.90268" lon="2.39065">
        <ele>558</ele>
        <time>2021-11-08T23:12:35Z</time>
      </trkpt>
      <trkpt lat="42.90358" lon="2.39039">
        <ele>552</ele>
        <time>2021-11-08T23:14:37Z</time>
      </trkpt>
      <trkpt lat="42.90336" lon="2.38835">
        <ele>543</ele>
        <time>2021-11-08T23:17:59Z</time>
      </trkpt>
      <trkpt lat="42.90232" lon="2.38747">
        <ele>532</ele>
        <time>2021-11-08T23:20:42Z</time>
      </trkpt>
      <trkpt lat="42.90289" lon="2.38668">
        <ele>530</ele>
        <time>2021-11-08T23:22:31Z</time>
      </trkpt>
      <trkpt lat="42.90214" lon="2.3846">
        <ele>512</ele>
        <time>2021-11-08T23:26:17Z</time>
      </trkpt>
      <trkpt lat="42.90577" lon="2.38329">
        <ele>556</ele>
        <time>2021-11-08T23:34:38Z</time>
      </trkpt>
      <trkpt lat="42.90706" lon="2.3835">
        <ele>578</ele>
        <time>2021-11-08T23:37:32Z</time>
      </trkpt>
      <trkpt lat="42.90638" lon="2.38245">
        <ele>561</ele>
        <time>2021-11-08T23:39:49Z</time>
      </trkpt>
      <trkpt lat="42.90842" lon="2.38057">
        <ele>584</ele>
        <time>2021-11-08T23:45:17Z</time>
      </trkpt>
      <trkpt lat="42.90817" lon="2.37979">
        <ele>568</ele>
        <time>2021-11-08T23:46:40Z</time>
      </trkpt>
      <trkpt lat="42.90893" lon="2.37921">
        <ele>590</ele>
        <time>2021-11-08T23:48:36Z</time>
      </trkpt>
      <trkpt lat="42.90886" lon="2.37843">
        <ele>577</ele>
        <time>2021-11-08T23:49:53Z</time>
      </trkpt>
      <trkpt lat="42.91069" lon="2.37681">
        <ele>604</ele>
        <time>2021-11-08T23:54:44Z</time>
      </trkpt>
      <trkpt lat="42.91116" lon="2.37546">
        <ele>602</ele>
        <time>2021-11-08T23:57:10Z</time>
      </trkpt>
      <trkpt lat="42.91137" lon="2.3741">
        <ele>587</ele>
        <time>2021-11-08T23:59:26Z</time>
      </trkpt>
      <trkpt lat="42.91044" lon="2.37316">
        <ele>559</ele>
        <time>2021-11-09T00:02:01Z</time>
      </trkpt>
      <trkpt lat="42.9099" lon="2.3718">
        <ele>531</ele>
        <time>2021-11-09T00:04:32Z</time>
      </trkpt>
      <trkpt lat="42.90936" lon="2.36961">
        <ele>506</ele>
        <time>2021-11-09T00:08:18Z</time>
      </trkpt>
      <trkpt lat="42.90774" lon="2.3683">
        <ele>502</ele>
        <time>2021-11-09T00:12:29Z</time>
      </trkpt>
      <trkpt lat="42.90738" lon="2.36757">
        <ele>505</ele>
        <time>2021-11-09T00:13:55Z</time>
      </trkpt>
      <trkpt lat="42.90562" lon="2.36616">
        <ele>491</ele>
        <time>2021-11-09T00:18:27Z</time>
      </trkpt>
      <trkpt lat="42.90505" lon="2.36429">
        <ele>492</ele>
        <time>2021-11-09T00:21:45Z</time>
      </trkpt>
      <trkpt lat="42.90429" lon="2.36152">
        <ele>482</ele>
        <time>2021-11-09T00:26:34Z</time>
      </trkpt>
      <trkpt lat="42.90354" lon="2.36047">
        <ele>455</ele>
        <time>2021-11-09T00:28:58Z</time>
      </trkpt>
      <trkpt lat="42.9035" lon="2.35802">
        <ele>461</ele>
        <time>2021-11-09T00:32:57Z</time>
      </trkpt>
      <trkpt lat="42.90296" lon="2.35593">
        <ele>443</ele>
        <time>2021-11-09T00:36:34Z</time>
      </trkpt>
      <trkpt lat="42.90163" lon="2.35499">
        <ele>412</ele>
        <time>2021-11-09T00:39:54Z</time>
      </trkpt>
    </trkseg>
  </trk>
</gpx>